Time;durP1;ratioP1;P1;durP2;ratioP2;P2;SDS_P1;SDS_P2;PMS_P1;PMS_P2;Temp;Humidity;BMP_temperature;BMP_pressure;BME280_temperature;BME280_humidity;BME280_pressure;Samples;Min_cycle;Max_cycle;Signal;HPM_P1;HPM_P2
2023/12/04 00:02:42;;;;;;;38.50;17.80;;;;;;;-1.66;86.92;100568.66;10440942;28;20050;-79
2023/12/04 00:07:45;;;;;;;40.22;16.80;;;;;;;-1.75;88.62;100557.53;10453544;28;20060;-78
2023/12/04 00:12:48;;;;;;;42.65;17.58;;;;;;;-1.38;87.68;100546.81;10450966;28;20045;-79
2023/12/04 00:17:56;;;;;;;41.83;17.77;;;;;;;-1.39;87.93;100537.19;10443495;28;20048;-79
2023/12/04 00:22:59;;;;;;;36.17;16.35;;;;;;;-1.37;88.48;100538.00;10423260;28;20087;-79
2023/12/04 00:28:02;;;;;;;26.80;13.00;;;;;;;-1.37;88.08;100530.09;10425395;28;20078;-79
2023/12/04 00:33:06;;;;;;;33.55;16.02;;;;;;;-1.40;88.11;100519.63;10438607;28;20079;-79
2023/12/04 00:38:09;;;;;;;36.25;17.52;;;;;;;-1.48;89.36;100517.25;10426206;28;20053;-79
2023/12/04 00:43:12;;;;;;;27.55;14.23;;;;;;;-1.47;88.77;100505.78;10439458;28;20076;-79
2023/12/04 00:48:17;;;;;;;30.65;12.80;;;;;;;-1.51;89.21;100504.16;10422917;28;20052;-79
2023/12/04 00:53:20;;;;;;;39.35;16.75;;;;;;;-1.43;88.33;100503.91;10420932;28;20046;-79
2023/12/04 00:58:23;;;;;;;34.75;16.45;;;;;;;-1.53;88.98;100494.56;10420553;28;20038;-79
2023/12/04 01:03:28;;;;;;;32.85;13.50;;;;;;;-1.39;89.37;100489.75;10432930;28;20123;-79
2023/12/04 01:08:31;;;;;;;26.52;13.20;;;;;;;-1.54;90.01;100495.47;10439460;28;20099;-79
2023/12/04 01:13:34;;;;;;;31.05;13.73;;;;;;;-1.45;90.39;100484.66;10470270;28;20055;-78
2023/12/04 01:18:39;;;;;;;33.22;15.68;;;;;;;-1.59;91.44;100469.28;10435924;28;20075;-79
2023/12/04 01:23:42;;;;;;;33.28;16.50;;;;;;;-1.64;91.91;100466.75;10448863;28;20063;-77
2023/12/04 01:28:45;;;;;;;32.47;14.95;;;;;;;-1.50;91.99;100471.63;10444172;28;20049;-77
2023/12/04 01:33:49;;;;;;;36.10;15.40;;;;;;;-1.50;91.87;100463.72;10429154;28;20043;-77
2023/12/04 01:38:52;;;;;;;28.05;11.75;;;;;;;-1.59;93.03;100460.47;10426786;28;20041;-79
2023/12/04 01:43:56;;;;;;;34.10;16.23;;;;;;;-1.41;92.86;100452.03;10426941;28;20033;-78
2023/12/04 01:49:02;;;;;;;29.63;14.27;;;;;;;-1.29;92.31;100446.41;10437487;28;20053;-77
2023/12/04 01:54:07;;;;;;;31.70;15.43;;;;;;;-1.48;93.07;100432.91;10418742;28;20037;-77
2023/12/04 01:59:10;;;;;;;31.95;13.75;;;;;;;-1.32;93.03;100429.78;10446401;28;20233;-77
2023/12/04 02:04:14;;;;;;;37.20;16.05;;;;;;;-1.33;93.86;100426.31;10440428;28;20045;-77
2023/12/04 02:09:18;;;;;;;32.47;15.48;;;;;;;-1.34;93.79;100423.69;10425762;28;20049;-80
2023/12/04 02:14:21;;;;;;;34.72;15.93;;;;;;;-1.36;94.51;100407.09;10454854;28;20586;-79
2023/12/04 02:19:26;;;;;;;38.03;17.17;;;;;;;-1.28;94.22;100411.22;10433410;28;20045;-78
2023/12/04 02:24:34;;;;;;;43.60;18.83;;;;;;;-1.35;93.45;100403.53;10427760;28;20064;-77
2023/12/04 02:29:40;;;;;;;43.22;20.00;;;;;;;-1.31;93.35;100403.41;10429169;28;20052;-79
2023/12/04 02:34:46;;;;;;;48.03;22.42;;;;;;;-1.48;93.96;100389.88;10443126;28;20060;-78
2023/12/04 02:39:52;;;;;;;48.72;21.85;;;;;;;-1.51;93.12;100384.69;10429734;28;20049;-79
2023/12/04 02:44:55;;;;;;;46.08;21.63;;;;;;;-1.71;93.64;100386.19;10438155;28;20111;-78
2023/12/04 02:49:59;;;;;;;50.08;22.60;;;;;;;-1.70;93.81;100363.34;10428825;28;20042;-79
2023/12/04 02:55:04;;;;;;;40.75;18.92;;;;;;;-1.65;93.41;100359.66;10418672;28;20041;-77
2023/12/04 03:00:08;;;;;;;45.00;18.88;;;;;;;-1.72;93.59;100344.09;10419214;28;20477;-78
2023/12/04 03:05:11;;;;;;;43.67;20.63;;;;;;;-1.79;92.47;100322.34;10421025;28;20120;-79
2023/12/04 03:10:16;;;;;;;37.05;16.98;;;;;;;-1.94;91.92;100326.31;10459661;28;20140;-77
2023/12/04 03:15:19;;;;;;;34.47;16.40;;;;;;;-2.01;90.16;100308.13;10415971;28;20088;-77
2023/12/04 03:20:22;;;;;;;43.15;22.23;;;;;;;-1.92;89.31;100302.56;10439607;28;20056;-78
2023/12/04 03:25:26;;;;;;;37.47;16.40;;;;;;;-1.74;87.70;100306.41;10415635;28;20702;-78
2023/12/04 03:30:29;;;;;;;31.08;15.27;;;;;;;-1.72;87.09;100302.81;10436234;28;20067;-78
2023/12/04 03:35:33;;;;;;;27.88;15.60;;;;;;;-1.62;85.70;100287.56;10424720;28;20116;-79
2023/12/04 03:40:37;;;;;;;31.42;16.10;;;;;;;-1.50;84.70;100289.81;10423353;28;20122;-78
2023/12/04 03:45:40;;;;;;;36.55;16.98;;;;;;;-1.49;83.14;100281.00;10449363;28;20260;-78
2023/12/04 03:50:43;;;;;;;29.83;13.38;;;;;;;-1.47;82.77;100289.72;10427553;28;20061;-78
2023/12/04 03:55:48;;;;;;;33.00;16.08;;;;;;;-1.52;81.67;100281.09;10445867;28;20045;-78
2023/12/04 04:00:51;;;;;;;26.63;13.93;;;;;;;-1.44;80.72;100270.31;10413888;28;20069;-78
2023/12/04 04:05:54;;;;;;;30.42;13.27;;;;;;;-1.56;81.24;100263.69;10410121;28;20637;-79
2023/12/04 04:10:58;;;;;;;31.60;16.58;;;;;;;-1.30;80.23;100254.88;10414256;28;20045;-78
2023/12/04 04:16:01;;;;;;;30.27;15.20;;;;;;;-1.39;80.00;100263.13;10415167;28;20516;-78
2023/12/04 04:21:05;;;;;;;32.55;14.98;;;;;;;-1.43;79.63;100245.69;10424882;28;20111;-79
2023/12/04 04:26:10;;;;;;;32.85;16.02;;;;;;;-1.42;79.16;100242.16;10422240;28;20929;-79
2023/12/04 04:31:13;;;;;;;24.50;13.23;;;;;;;-1.27;78.86;100249.50;10439328;28;20463;-80
2023/12/04 04:36:16;;;;;;;26.33;13.23;;;;;;;-1.24;78.66;100233.59;10448832;28;20057;-79
2023/12/04 04:41:20;;;;;;;22.95;10.95;;;;;;;-1.28;77.96;100229.34;10445890;28;20127;-78
2023/12/04 04:46:25;;;;;;;26.23;12.25;;;;;;;-1.25;77.85;100231.88;10424846;28;20049;-78
2023/12/04 04:51:29;;;;;;;24.42;11.70;;;;;;;-1.15;76.65;100228.91;10427940;28;20051;-78
2023/12/04 04:56:33;;;;;;;26.48;14.05;;;;;;;-1.15;76.76;100229.78;10434817;28;20094;-78
2023/12/04 05:01:37;;;;;;;24.80;11.85;;;;;;;-1.03;76.33;100215.31;10436475;28;20041;-78
2023/12/04 05:06:40;;;;;;;21.05;11.50;;;;;;;-0.91;75.79;100217.50;10452091;28;20507;-78
2023/12/04 05:11:44;;;;;;;24.92;12.40;;;;;;;-1.06;76.09;100211.00;10439404;28;20041;-78
2023/12/04 05:16:47;;;;;;;25.88;12.88;;;;;;;-0.87;76.41;100205.94;10444940;28;20408;-78
2023/12/04 05:21:50;;;;;;;25.75;12.68;;;;;;;-0.97;76.05;100210.66;10423153;28;20597;-78
2023/12/04 05:26:55;;;;;;;26.10;12.63;;;;;;;-0.92;75.40;100202.59;10440588;28;20586;-78
2023/12/04 05:31:58;;;;;;;23.75;12.65;;;;;;;-0.95;75.66;100200.94;10439070;28;20516;-79
2023/12/04 05:37:01;;;;;;;22.88;11.50;;;;;;;-1.01;75.66;100201.16;10456780;28;20099;-78
2023/12/04 05:42:05;;;;;;;29.20;12.73;;;;;;;-1.08;75.59;100190.88;10433520;28;20178;-78
2023/12/04 05:47:09;;;;;;;23.27;13.77;;;;;;;-0.95;75.91;100192.16;10412778;28;20079;-78
2023/12/04 05:52:12;;;;;;;24.45;13.18;;;;;;;-1.29;75.92;100181.94;10415458;28;20051;-77
2023/12/04 05:57:16;;;;;;;23.20;12.75;;;;;;;-1.10;75.53;100190.91;10411532;28;20120;-78
2023/12/04 06:02:19;;;;;;;24.63;12.63;;;;;;;-1.11;75.32;100181.31;10411332;28;20041;-78
2023/12/04 06:07:22;;;;;;;24.75;11.73;;;;;;;-0.97;75.04;100184.28;10446446;28;20079;-78
2023/12/04 06:12:26;;;;;;;22.77;9.82;;;;;;;-1.07;74.37;100187.31;10444711;28;20041;-78
2023/12/04 06:17:29;;;;;;;22.73;10.73;;;;;;;-1.01;74.54;100174.78;10443807;28;20132;-79
2023/12/04 06:22:34;;;;;;;24.92;12.80;;;;;;;-1.24;74.86;100180.88;10456271;28;20049;-78
2023/12/04 06:27:39;;;;;;;22.48;12.15;;;;;;;-1.13;74.90;100169.09;10461402;28;20056;-79
2023/12/04 06:32:43;;;;;;;25.70;12.20;;;;;;;-1.09;74.34;100162.81;10448179;28;20056;-78
2023/12/04 06:37:46;;;;;;;25.77;12.57;;;;;;;-1.06;73.58;100168.81;10484590;28;20095;-78
2023/12/04 06:42:51;;;;;;;29.65;15.30;;;;;;;-1.18;74.30;100174.53;10462518;28;20473;-78
2023/12/04 06:47:55;;;;;;;23.92;13.00;;;;;;;-1.07;73.82;100179.41;10450443;28;20049;-78
2023/12/04 06:53:01;;;;;;;22.15;11.07;;;;;;;-1.08;73.85;100178.56;10450135;28;20140;-79
2023/12/04 06:58:06;;;;;;;22.73;12.68;;;;;;;-1.26;73.51;100174.81;10444810;28;20105;-79
2023/12/04 07:03:09;;;;;;;28.05;11.02;;;;;;;-0.98;73.05;100181.72;10453592;28;20037;-80
2023/12/04 07:08:12;;;;;;;21.58;11.15;;;;;;;-1.12;73.59;100190.13;10456869;28;20120;-79
2023/12/04 07:13:16;;;;;;;29.95;12.48;;;;;;;-0.74;76.95;100178.19;10424062;28;20056;-78
2023/12/04 07:18:19;;;;;;;27.25;14.05;;;;;;;0.28;73.47;100168.91;10423664;28;20429;-78
2023/12/04 07:23:22;;;;;;;21.58;12.32;;;;;;;0.35;69.90;100160.63;10416933;28;20049;-78
2023/12/04 07:28:31;;;;;;;19.95;11.32;;;;;;;-0.49;69.67;100150.88;10414567;28;20045;-78
2023/12/04 07:33:34;;;;;;;23.70;12.70;;;;;;;-0.79;71.85;100155.53;10411915;28;20129;-78
2023/12/04 07:38:38;;;;;;;26.25;12.02;;;;;;;-0.93;72.49;100157.81;10409992;28;20095;-78
2023/12/04 07:43:43;;;;;;;22.35;12.05;;;;;;;-0.94;73.04;100149.03;10423232;28;20049;-78
2023/12/04 07:48:46;;;;;;;23.60;12.30;;;;;;;-0.90;71.94;100142.75;10410375;28;20069;-78
2023/12/04 07:53:49;;;;;;;22.10;11.38;;;;;;;-0.94;70.63;100141.13;10409308;28;20056;-78
2023/12/04 07:58:53;;;;;;;23.70;12.23;;;;;;;-1.01;71.70;100135.25;10414674;28;20587;-78
2023/12/04 08:03:56;;;;;;;25.67;12.73;;;;;;;-1.18;70.95;100137.63;10429034;28;20044;-78
2023/12/04 08:09:00;;;;;;;22.55;12.60;;;;;;;-1.06;70.17;100137.19;10433497;28;20125;-79
2023/12/04 08:14:05;;;;;;;22.17;11.18;;;;;;;-0.96;69.66;100129.78;10430542;28;20080;-77
2023/12/04 08:19:08;;;;;;;21.40;11.63;;;;;;;-1.04;69.82;100124.81;10429003;28;20041;-78
2023/12/04 08:24:11;;;;;;;19.92;10.70;;;;;;;-0.83;69.57;100117.00;10443675;28;20045;-78
2023/12/04 08:29:15;;;;;;;20.75;11.48;;;;;;;-0.89;68.89;100123.38;10448666;28;20041;-78
2023/12/04 08:34:18;;;;;;;22.05;11.48;;;;;;;-0.98;68.41;100113.19;10453235;28;20057;-78
2023/12/04 08:39:22;;;;;;;21.05;11.40;;;;;;;-0.81;67.95;100091.44;10486400;28;20051;-78
2023/12/04 08:44:27;;;;;;;19.23;9.40;;;;;;;-1.06;68.39;100100.28;10448019;28;20041;-77
2023/12/04 08:49:31;;;;;;;23.73;12.15;;;;;;;-1.05;68.26;100094.06;10468619;28;20044;-78
2023/12/04 08:54:45;;;;;;;23.40;12.60;;;;;;;-0.83;68.26;100087.97;10456158;28;20094;-78
2023/12/04 08:59:49;;;;;;;24.75;13.60;;;;;;;-0.74;68.21;100080.59;10445786;28;20049;-78
2023/12/04 09:04:52;;;;;;;20.98;11.68;;;;;;;-0.62;67.56;100079.22;10449148;28;20045;-78
2023/12/04 09:09:55;;;;;;;23.33;12.05;;;;;;;-0.37;67.46;100076.47;10454051;28;20153;-78
2023/12/04 09:15:00;;;;;;;20.50;11.38;;;;;;;-0.45;66.84;100070.63;10440646;28;20033;-78
2023/12/04 09:20:05;;;;;;;21.60;10.85;;;;;;;-0.30;65.87;100075.31;10448414;28;20049;-80
2023/12/04 09:25:09;;;;;;;21.75;12.32;;;;;;;-0.35;65.81;100068.50;10454198;28;20033;-79
2023/12/04 09:30:14;;;;;;;22.25;11.77;;;;;;;-0.32;66.88;100069.22;10470410;28;20063;-78
2023/12/04 09:35:18;;;;;;;22.52;11.60;;;;;;;-0.22;66.06;100063.56;10485797;28;20113;-79
2023/12/04 09:40:22;;;;;;;21.95;11.77;;;;;;;-0.22;65.57;100059.16;10465171;28;20049;-80
2023/12/04 09:45:27;;;;;;;29.40;15.70;;;;;;;-0.14;65.15;100048.25;10464493;28;20052;-79
2023/12/04 09:50:30;;;;;;;21.42;11.35;;;;;;;-0.28;64.78;100043.56;10479028;28;20041;-78
2023/12/04 09:55:33;;;;;;;23.58;11.02;;;;;;;-0.35;64.71;100040.31;10438184;28;20052;-79
2023/12/04 10:00:38;;;;;;;20.30;11.05;;;;;;;-0.09;64.51;100047.13;10439498;28;20065;-78
2023/12/04 10:05:44;;;;;;;20.58;11.77;;;;;;;-0.07;64.83;100034.72;10492859;28;20045;-76
2023/12/04 10:10:47;;;;;;;22.00;10.68;;;;;;;0.15;64.53;100008.25;10423848;28;20057;-77
2023/12/04 10:15:52;;;;;;;19.13;10.98;;;;;;;0.13;64.18;99998.69;10445700;28;20049;-76
2023/12/04 10:20:56;;;;;;;17.17;10.32;;;;;;;0.07;64.51;99994.53;10457304;28;20072;-78
2023/12/04 10:26:01;;;;;;;19.15;10.18;;;;;;;0.17;64.87;99981.78;10457346;28;20531;-78
2023/12/04 10:31:06;;;;;;;21.13;11.85;;;;;;;0.32;64.58;99969.66;10458079;28;20068;-79
2023/12/04 10:36:12;;;;;;;18.60;11.25;;;;;;;0.50;65.55;99949.47;10446607;28;20037;-79
2023/12/04 10:41:16;;;;;;;19.70;11.27;;;;;;;0.52;64.78;99945.84;10473173;28;20047;-79
2023/12/04 10:46:21;;;;;;;15.60;8.27;;;;;;;0.63;62.51;99939.16;10459362;28;20120;-79
2023/12/04 10:51:24;;;;;;;17.63;9.35;;;;;;;0.69;61.01;99945.03;10452387;28;20068;-79
2023/12/04 10:56:32;;;;;;;17.00;7.15;;;;;;;0.58;59.77;99940.25;10449968;28;20049;-79
2023/12/04 11:01:38;;;;;;;12.35;7.53;;;;;;;0.92;60.28;99929.88;10456299;28;20054;-78
2023/12/04 11:06:43;;;;;;;14.88;7.28;;;;;;;0.73;59.30;99912.22;10445833;28;20129;-78
2023/12/04 11:11:52;;;;;;;13.90;7.72;;;;;;;0.72;59.63;99914.97;10445544;28;20045;-77
2023/12/04 11:17:02;;;;;;;18.63;10.38;;;;;;;0.54;60.24;99912.25;10444571;28;20041;-77
2023/12/04 11:22:08;;;;;;;7.97;4.75;;;;;;;0.35;61.37;99893.75;10441449;28;20526;-78
2023/12/04 11:27:11;;;;;;;18.60;10.18;;;;;;;0.47;61.75;99889.69;10442669;28;20119;-77
2023/12/04 11:32:17;;;;;;;18.33;9.25;;;;;;;0.53;64.19;99880.63;10436335;28;20037;-77
2023/12/04 11:37:21;;;;;;;19.73;10.48;;;;;;;0.35;66.47;99879.69;10436514;28;20573;-77
2023/12/04 11:42:25;;;;;;;16.90;9.63;;;;;;;0.39;67.34;99883.91;10433070;28;20090;-77
2023/12/04 11:47:31;;;;;;;19.50;11.15;;;;;;;0.23;66.21;99873.19;10435657;28;20061;-77
2023/12/04 11:52:34;;;;;;;17.48;9.70;;;;;;;0.20;65.62;99861.91;10433675;28;20072;-78
2023/12/04 11:57:38;;;;;;;18.50;9.93;;;;;;;0.24;66.38;99848.47;10434133;28;20501;-78
2023/12/04 12:02:49;;;;;;;18.10;10.30;;;;;;;0.06;65.33;99859.91;10457732;28;20048;-77
2023/12/04 12:08:12;;;;;;;20.70;11.00;;;;;;;0.36;67.37;99871.69;10464427;28;20037;-77
2023/12/04 12:13:15;;;;;;;19.20;11.25;;;;;;;0.39;67.27;99871.53;10442400;28;20041;-77
2023/12/04 12:18:23;;;;;;;19.27;10.07;;;;;;;0.50;67.77;99856.97;10448378;28;20037;-77
2023/12/04 12:23:27;;;;;;;19.50;10.65;;;;;;;0.29;68.78;99832.41;10449608;28;20058;-79
2023/12/04 12:28:31;;;;;;;17.08;9.85;;;;;;;0.17;67.92;99832.06;10448330;28;20105;-78
2023/12/04 12:33:35;;;;;;;17.33;10.65;;;;;;;0.24;68.52;99822.06;10460798;28;20101;-79
2023/12/04 12:38:38;;;;;;;17.98;9.57;;;;;;;0.25;66.55;99812.34;10461293;28;20084;-79
2023/12/04 12:43:41;;;;;;;16.85;9.15;;;;;;;0.40;68.29;99795.78;10465104;28;20049;-78
2023/12/04 12:48:45;;;;;;;19.02;9.57;;;;;;;0.06;66.60;99789.47;10444715;28;20041;-78
2023/12/04 12:53:49;;;;;;;16.77;8.90;;;;;;;0.29;67.47;99780.44;10452816;28;20053;-77
2023/12/04 12:58:54;;;;;;;15.82;8.77;;;;;;;0.11;66.33;99789.22;10479514;28;20025;-76
2023/12/04 13:03:59;;;;;;;15.48;9.70;;;;;;;0.32;66.65;99784.72;10497653;28;20048;-77
2023/12/04 13:09:06;;;;;;;13.68;8.68;;;;;;;0.19;65.61;99778.31;10463862;28;20109;-78
2023/12/04 13:14:09;;;;;;;15.52;8.88;;;;;;;0.25;66.00;99780.63;10485057;28;20075;-78
2023/12/04 13:19:14;;;;;;;16.23;9.32;;;;;;;0.38;66.95;99780.00;10477719;28;20156;-78
2023/12/04 13:24:17;;;;;;;16.02;9.43;;;;;;;0.42;67.45;99772.78;10438651;28;20081;-77
2023/12/04 13:29:20;;;;;;;17.25;9.60;;;;;;;0.48;66.63;99758.41;10438295;28;20044;-78
2023/12/04 13:34:24;;;;;;;15.82;9.23;;;;;;;0.38;66.80;99745.66;10464308;28;20045;-78
2023/12/04 13:39:47;;;;;;;13.18;8.18;;;;;;;0.35;66.04;99740.50;10418607;28;20061;-77
2023/12/04 13:44:51;;;;;;;16.23;9.07;;;;;;;0.54;66.51;99732.53;10460226;28;20049;-77
2023/12/04 13:49:58;;;;;;;15.00;9.20;;;;;;;0.35;65.76;99734.34;10463020;28;20045;-77
2023/12/04 13:55:01;;;;;;;20.90;9.02;;;;;;;0.37;66.22;99727.22;10434932;28;20045;-77
2023/12/04 14:00:06;;;;;;;16.55;9.50;;;;;;;0.26;66.23;99716.34;10430132;28;20061;-77
2023/12/04 14:05:15;;;;;;;13.48;7.88;;;;;;;0.19;66.36;99713.13;10417869;28;20124;-77
2023/12/04 14:10:19;;;;;;;14.68;9.18;;;;;;;0.21;66.07;99705.13;10410369;28;20068;-77
2023/12/04 14:15:22;;;;;;;14.15;8.88;;;;;;;0.36;66.54;99699.09;10414447;28;20084;-76
2023/12/04 14:20:27;;;;;;;18.25;8.93;;;;;;;0.33;66.07;99692.19;10409417;28;20479;-76
2023/12/04 14:25:30;;;;;;;16.48;8.60;;;;;;;0.33;66.69;99686.91;10431086;28;20047;-77
2023/12/04 14:30:34;;;;;;;12.15;7.30;;;;;;;0.21;66.92;99695.41;10447340;28;20131;-77
2023/12/04 14:35:39;;;;;;;15.82;9.43;;;;;;;-0.08;66.42;99681.84;10443580;28;20049;-77
2023/12/04 14:40:42;;;;;;;14.68;8.38;;;;;;;-0.03;66.71;99676.34;10444842;28;20675;-76
2023/12/04 14:45:45;;;;;;;17.40;8.35;;;;;;;-0.06;67.36;99676.47;10437464;28;20040;-77
2023/12/04 14:50:50;;;;;;;13.25;7.68;;;;;;;-0.12;67.34;99675.00;10456157;28;20752;-77
2023/12/04 15:06:57;;;;;;;11.40;7.20;;;;;;;-0.13;67.15;99675.09;10446509;28;20064;-78
2023/12/04 15:12:21;;;;;;;17.20;9.05;;;;;;;-0.06;67.51;99665.91;10459074;28;20073;-78
2023/12/04 15:17:44;;;;;;;16.77;8.45;;;;;;;-0.08;66.40;99659.88;10435741;28;20065;-78
2023/12/04 15:22:49;;;;;;;16.77;8.23;;;;;;;-0.03;66.80;99651.72;10459954;28;20067;-76
2023/12/04 15:27:52;;;;;;;15.82;8.55;;;;;;;-0.06;67.52;99650.06;10464059;28;20048;-77
2023/12/04 15:32:55;;;;;;;14.10;8.38;;;;;;;-0.14;68.77;99653.13;10460515;28;20057;-78
2023/12/04 15:37:59;;;;;;;15.07;8.80;;;;;;;-0.23;69.10;99652.69;10464341;28;20048;-77
2023/12/04 15:43:03;;;;;;;14.52;8.18;;;;;;;-0.28;70.11;99637.91;10452799;28;20076;-77
2023/12/04 15:48:07;;;;;;;16.38;7.75;;;;;;;-0.41;71.12;99633.31;10438155;28;20045;-77
2023/12/04 15:53:12;;;;;;;15.02;9.55;;;;;;;-0.30;72.38;99623.13;10444649;28;20127;-77
2023/12/04 15:58:16;;;;;;;17.15;8.73;;;;;;;-0.37;73.63;99619.03;10452385;28;20120;-77
2023/12/04 16:03:19;;;;;;;15.57;7.90;;;;;;;-0.61;75.47;99631.59;10444826;28;20120;-77
2023/12/04 16:08:23;;;;;;;18.48;9.10;;;;;;;-0.52;75.67;99624.13;10447361;28;20132;-77
2023/12/04 16:13:27;;;;;;;16.25;8.52;;;;;;;-0.47;75.89;99610.69;10450115;28;20068;-77
2023/12/04 16:18:30;;;;;;;15.18;8.32;;;;;;;-0.56;76.09;99595.31;10448734;28;20049;-77
2023/12/04 16:23:35;;;;;;;14.10;9.00;;;;;;;-0.46;76.00;99601.03;10450376;28;20393;-77
2023/12/04 16:28:38;;;;;;;18.58;9.95;;;;;;;-0.46;75.48;99595.75;10435136;28;20407;-76
2023/12/04 16:33:41;;;;;;;18.65;9.93;;;;;;;-0.38;75.54;99589.16;10442817;28;20044;-77
2023/12/04 16:38:46;;;;;;;22.92;11.73;;;;;;;-0.49;76.43;99575.63;10455265;28;20061;-77
2023/12/04 16:43:49;;;;;;;16.80;9.45;;;;;;;-0.57;76.60;99580.44;10453894;28;20041;-77
2023/12/04 16:48:52;;;;;;;14.80;8.07;;;;;;;-0.82;76.22;99570.19;10430851;28;20757;-78
2023/12/04 16:53:57;;;;;;;15.00;9.02;;;;;;;-0.69;76.59;99557.25;10452764;28;20064;-77
2023/12/04 16:59:00;;;;;;;20.13;9.40;;;;;;;-0.54;76.63;99552.09;10456594;28;20055;-77
2023/12/04 17:04:03;;;;;;;15.75;8.27;;;;;;;-0.56;75.81;99546.03;10445747;28;20069;-76
2023/12/04 17:09:14;;;;;;;16.48;9.13;;;;;;;-0.50;75.82;99540.47;10446213;28;20044;-76
2023/12/04 17:14:17;;;;;;;15.75;8.65;;;;;;;-0.59;76.09;99534.78;10454992;28;20111;-77
2023/12/04 17:19:21;;;;;;;15.32;8.43;;;;;;;-0.61;76.54;99526.09;10445667;28;20034;-76
2023/12/04 17:24:26;;;;;;;13.25;7.00;;;;;;;-0.59;76.64;99517.19;10465538;28;20033;-76
2023/12/04 17:29:29;;;;;;;17.85;8.70;;;;;;;-0.85;77.96;99514.94;10468612;28;20040;-77
2023/12/04 17:34:32;;;;;;;15.38;8.40;;;;;;;-0.85;78.06;99497.34;10449329;28;20073;-77
2023/12/04 17:39:37;;;;;;;12.60;7.80;;;;;;;-0.69;78.05;99486.03;10450413;28;20677;-79
2023/12/04 17:44:40;;;;;;;13.10;8.57;;;;;;;-0.74;77.73;99492.41;10455254;28;20497;-77
2023/12/04 17:49:43;;;;;;;15.05;9.13;;;;;;;-0.65;78.04;99490.25;10448038;28;20060;-77
2023/12/04 17:54:48;;;;;;;14.43;7.95;;;;;;;-0.58;77.97;99489.00;10440517;28;20052;-77
2023/12/04 17:59:52;;;;;;;15.35;8.27;;;;;;;-0.53;78.30;99481.72;10449438;28;20047;-77
2023/12/04 18:04:55;;;;;;;12.98;7.32;;;;;;;-0.85;79.86;99486.81;10447209;28;20532;-76
2023/12/04 18:10:00;;;;;;;15.63;9.13;;;;;;;-0.94;80.66;99484.59;10441603;28;20069;-77
2023/12/04 18:15:03;;;;;;;14.02;8.35;;;;;;;-1.11;81.50;99471.38;10440663;28;20048;-77
2023/12/04 18:20:07;;;;;;;13.40;8.20;;;;;;;-0.93;81.31;99465.22;10474648;28;20051;-78
2023/12/04 18:25:13;;;;;;;12.45;7.60;;;;;;;-0.97;82.01;99469.78;10449685;28;20053;-77
2023/12/04 18:30:18;;;;;;;17.50;9.70;;;;;;;-0.98;83.00;99472.50;10429139;28;20048;-79
2023/12/04 18:35:23;;;;;;;16.30;8.88;;;;;;;-0.96;82.64;99465.34;10442074;28;20051;-77
2023/12/04 18:40:27;;;;;;;16.02;8.80;;;;;;;-0.88;82.35;99465.84;10426120;28;20076;-77
2023/12/04 18:45:31;;;;;;;16.30;9.82;;;;;;;-1.26;83.72;99462.38;10468004;28;20144;-78
2023/12/04 18:50:36;;;;;;;16.30;9.30;;;;;;;-1.00;84.21;99453.25;10451310;28;20067;-78
2023/12/04 18:55:41;;;;;;;14.52;7.93;;;;;;;-1.18;85.43;99447.06;10458312;28;20548;-78
2023/12/04 19:00:44;;;;;;;18.52;8.55;;;;;;;-1.20;86.14;99441.88;10437013;28;20089;-77
2023/12/04 19:05:48;;;;;;;14.68;8.82;;;;;;;-1.13;86.07;99439.81;10470593;28;20045;-78
2023/12/04 19:10:52;;;;;;;17.85;10.10;;;;;;;-1.08;86.41;99434.31;10459983;28;20492;-77
2023/12/04 19:15:55;;;;;;;13.48;8.75;;;;;;;-1.38;87.83;99423.47;10425644;28;20045;-77
2023/12/04 19:20:58;;;;;;;16.67;9.15;;;;;;;-1.42;88.09;99434.16;10440707;28;20587;-77
2023/12/04 19:26:04;;;;;;;18.10;10.60;;;;;;;-1.29;88.64;99423.00;10442434;28;20056;-76
2023/12/04 19:31:08;;;;;;;15.55;10.25;;;;;;;-1.47;89.24;99411.59;10447438;28;20033;-77
2023/12/04 19:36:13;;;;;;;16.60;10.52;;;;;;;-1.58;90.31;99406.81;10441567;28;20049;-76
2023/12/04 19:41:18;;;;;;;17.05;8.98;;;;;;;-1.23;88.73;99407.78;10457325;28;20044;-78
2023/12/04 19:46:21;;;;;;;23.50;11.82;;;;;;;-1.30;89.60;99400.25;10466026;28;20043;-77
2023/12/04 19:51:24;;;;;;;19.42;10.00;;;;;;;-1.12;89.30;99387.97;10462324;28;20076;-78
2023/12/04 19:56:28;;;;;;;19.63;10.45;;;;;;;-1.01;87.74;99377.75;10450300;28;20045;-77
2023/12/04 20:01:32;;;;;;;21.20;12.10;;;;;;;-1.34;88.59;99378.47;10450466;28;20051;-79
2023/12/04 20:06:35;;;;;;;19.17;11.27;;;;;;;-1.07;88.12;99376.28;10435900;28;20045;-78
2023/12/04 20:11:39;;;;;;;18.92;10.50;;;;;;;-1.07;87.86;99364.84;10421046;28;20041;-78
2023/12/04 20:16:43;;;;;;;18.90;10.40;;;;;;;-1.32;89.22;99360.78;10441090;28;20045;-79
2023/12/04 20:21:46;;;;;;;17.48;9.50;;;;;;;-1.14;88.83;99350.28;10454382;28;20037;-79
2023/12/04 20:26:51;;;;;;;17.58;9.88;;;;;;;-1.30;89.97;99348.38;10453039;28;20488;-77
2023/12/04 20:31:54;;;;;;;21.13;11.18;;;;;;;-1.30;89.92;99348.38;10454275;28;20080;-79
2023/12/04 20:36:57;;;;;;;18.02;9.80;;;;;;;-1.05;89.43;99341.91;10458701;28;20035;-78
2023/12/04 20:42:01;;;;;;;21.98;11.45;;;;;;;-1.26;91.21;99336.78;10451887;28;20461;-78
2023/12/04 20:47:05;;;;;;;20.42;10.77;;;;;;;-1.14;90.04;99343.22;10464558;28;20045;-79
2023/12/04 20:52:08;;;;;;;18.98;9.95;;;;;;;-1.24;90.15;99316.47;10479762;28;20048;-79
2023/12/04 20:57:12;;;;;;;20.02;10.35;;;;;;;-1.01;89.13;99322.41;10467123;28;20080;-77
2023/12/04 21:02:16;;;;;;;18.42;10.27;;;;;;;-0.93;88.04;99314.06;10476872;28;20533;-78
2023/12/04 21:07:19;;;;;;;17.92;10.70;;;;;;;-0.73;86.91;99314.78;10479267;28;20116;-78
2023/12/04 21:12:23;;;;;;;19.67;10.48;;;;;;;-0.80;87.83;99307.25;10470751;28;20045;-77
2023/12/04 21:17:26;;;;;;;17.05;9.15;;;;;;;-0.88;87.67;99293.59;10463716;28;20059;-79
2023/12/04 21:22:29;;;;;;;19.80;12.55;;;;;;;-0.76;87.84;99304.38;10461024;28;20113;-78
2023/12/04 21:27:35;;;;;;;15.98;8.88;;;;;;;-0.75;87.21;99297.31;10457397;28;20079;-78
2023/12/04 21:32:38;;;;;;;15.30;9.32;;;;;;;-0.54;86.61;99303.28;10461115;28;20053;-79
2023/12/04 21:37:41;;;;;;;14.95;9.85;;;;;;;-0.60;87.65;99290.41;10444535;28;20037;-78
2023/12/04 21:42:46;;;;;;;20.63;11.25;;;;;;;-0.62;88.22;99285.22;10443958;28;20048;-77
2023/12/04 21:47:50;;;;;;;24.90;12.32;;;;;;;-0.67;88.73;99281.09;10454955;28;20041;-77
2023/12/04 21:52:53;;;;;;;20.73;11.40;;;;;;;-0.45;88.89;99265.84;10487127;28;20033;-78
2023/12/04 21:57:58;;;;;;;22.60;12.85;;;;;;;-0.59;89.40;99263.09;10467083;28;20100;-77
2023/12/04 22:03:01;;;;;;;19.90;11.35;;;;;;;-0.45;89.55;99259.72;10483847;28;20079;-78
2023/12/04 22:08:04;;;;;;;23.33;12.05;;;;;;;-0.35;89.78;99251.22;10443584;28;20045;-78
2023/12/04 22:13:09;;;;;;;18.15;11.43;;;;;;;-0.26;89.67;99241.13;10463232;28;20935;-77
2023/12/04 22:18:12;;;;;;;17.80;10.13;;;;;;;-0.36;90.07;99241.59;10460355;28;20717;-77
2023/12/04 22:23:16;;;;;;;21.73;11.45;;;;;;;-0.47;92.05;99241.31;10430510;28;20049;-77
2023/12/04 22:28:21;;;;;;;24.65;12.45;;;;;;;-0.33;91.59;99217.72;10425382;28;20056;-78
2023/12/04 22:33:24;;;;;;;19.92;11.95;;;;;;;-0.46;92.55;99214.03;10437809;28;20045;-77
2023/12/04 22:38:27;;;;;;;19.58;10.50;;;;;;;-0.15;91.20;99217.63;10435230;28;20049;-78
2023/12/04 22:43:31;;;;;;;17.55;11.15;;;;;;;-0.24;91.77;99223.41;10431136;28;20072;-78
2023/12/04 22:48:35;;;;;;;20.75;11.15;;;;;;;-0.21;91.72;99216.16;10450868;28;20041;-77
2023/12/04 22:53:38;;;;;;;19.73;10.70;;;;;;;-0.25;91.62;99217.25;10426195;28;20049;-78
2023/12/04 22:58:43;;;;;;;19.30;10.15;;;;;;;-0.17;91.67;99222.13;10415345;28;20124;-76
2023/12/04 23:03:46;;;;;;;16.05;10.07;;;;;;;-0.21;91.56;99210.03;10431042;28;20049;-77
2023/12/04 23:08:49;;;;;;;18.10;10.40;;;;;;;-0.09;90.85;99207.56;10415653;28;20072;-77
2023/12/04 23:13:53;;;;;;;18.83;11.27;;;;;;;-0.20;91.39;99199.38;10410799;28;20041;-78